createdAt,value
2019-05-07T00:02:22.653Z,6.85
2019-05-07T00:04:52.241Z,6.86
2019-05-07T00:07:22.396Z,6.87
2019-05-07T00:09:52.552Z,6.89
2019-05-07T00:12:23.075Z,6.86
2019-05-07T00:14:58.972Z,6.87
2019-05-07T00:17:22.831Z,6.86
2019-05-07T00:19:52.594Z,6.82
2019-05-07T00:22:22.907Z,6.81
2019-05-07T00:24:52.150Z,6.76
2019-05-07T00:27:22.599Z,6.71
2019-05-07T00:29:52.104Z,6.68
2019-05-07T00:32:22.194Z,6.67
2019-05-07T00:34:54.237Z,6.68
2019-05-07T00:37:25.106Z,6.69
2019-05-07T00:40:13.153Z,6.69
2019-05-07T00:42:59.631Z,6.69
2019-05-07T00:45:29.805Z,6.67
2019-05-07T00:47:58.189Z,6.68
2019-05-07T00:50:28.236Z,6.66
2019-05-07T00:52:56.884Z,6.66
2019-05-07T00:55:25.285Z,6.64
2019-05-07T00:57:53.737Z,6.63
2019-05-07T01:00:22.462Z,6.63
2019-05-07T01:02:52.525Z,6.64
2019-05-07T01:05:23.068Z,6.62
2019-05-07T01:07:52.901Z,6.60
2019-05-07T01:10:22.271Z,6.61
2019-05-07T01:12:52.983Z,6.60
2019-05-07T01:15:31.089Z,6.58
2019-05-07T01:17:52.116Z,6.56
2019-05-07T01:20:22.127Z,6.55
2019-05-07T01:22:54.389Z,6.54
2019-05-07T01:25:22.050Z,6.53
2019-05-07T01:27:50.636Z,6.53
2019-05-07T01:30:19.361Z,6.53
2019-05-07T01:32:58.362Z,6.50
2019-05-07T01:35:28.459Z,6.48
2019-05-07T01:37:56.850Z,6.46
2019-05-07T01:40:25.319Z,6.45
2019-05-07T01:42:53.736Z,6.46
2019-05-07T01:45:24.938Z,6.42
2019-05-07T01:47:53.079Z,6.41
2019-05-07T01:50:22.727Z,6.37
2019-05-07T01:52:52.293Z,6.34
2019-05-07T01:55:22.566Z,6.28
2019-05-07T01:57:52.249Z,6.24
2019-05-07T02:00:22.431Z,6.21
2019-05-07T02:03:02.818Z,6.18
2019-05-07T02:05:48.378Z,6.15
2019-05-07T02:08:35.040Z,6.12
2019-05-07T02:11:12.762Z,6.09
2019-05-07T02:13:41.992Z,6.08
2019-05-07T02:16:12.428Z,6.08
2019-05-07T02:18:42.477Z,6.06
2019-05-07T02:21:12.897Z,6.03
2019-05-07T02:23:42.556Z,6.01
2019-05-07T02:26:13.286Z,6.02
2019-05-07T02:28:42.606Z,6.00
2019-05-07T02:31:14.675Z,5.97
2019-05-07T02:33:43.462Z,5.93
2019-05-07T02:36:14.376Z,5.91
2019-05-07T02:38:46.143Z,5.90
2019-05-07T02:41:23.348Z,5.86
2019-05-07T02:43:53.758Z,5.84
2019-05-07T02:46:31.869Z,5.82
2019-05-07T02:49:03.192Z,5.79
2019-05-07T02:51:36.266Z,5.77
2019-05-07T02:54:06.288Z,5.77
2019-05-07T02:56:34.749Z,5.75
2019-05-07T02:59:04.201Z,5.74
2019-05-07T03:01:33.483Z,5.71
2019-05-07T03:04:03.582Z,5.69
2019-05-07T03:06:55.838Z,5.64
2019-05-07T03:09:24.223Z,5.61
2019-05-07T03:11:53.163Z,5.58
2019-05-07T03:14:23.393Z,5.57
2019-05-07T03:16:53.560Z,5.56
2019-05-07T03:19:24.140Z,5.54
2019-05-07T03:21:55.983Z,5.50
2019-05-07T03:24:26.540Z,5.49
2019-05-07T03:26:54.981Z,5.49
2019-05-07T03:29:25.209Z,5.49
2019-05-07T03:32:10.214Z,5.49
2019-05-07T03:34:45.701Z,5.46
2019-05-07T03:37:13.566Z,5.43
2019-05-07T03:39:43.308Z,5.40
2019-05-07T03:42:13.280Z,5.37
2019-05-07T03:44:46.377Z,5.36
2019-05-07T03:47:35.055Z,5.34
2019-05-07T03:50:05.006Z,5.33
2019-05-07T03:52:33.736Z,5.30
2019-05-07T03:55:03.687Z,5.28
2019-05-07T03:57:33.439Z,5.26
2019-05-07T04:00:04.346Z,5.29
2019-05-07T04:02:33.332Z,5.28
2019-05-07T04:05:04.263Z,5.28
2019-05-07T04:07:33.659Z,5.27
2019-05-07T04:10:04.449Z,5.26
2019-05-07T04:12:34.249Z,5.23
2019-05-07T04:15:03.433Z,5.22
2019-05-07T04:17:33.806Z,5.24
2019-05-07T04:20:04.409Z,5.23
2019-05-07T04:22:34.523Z,5.21
2019-05-07T04:25:17.288Z,5.20
2019-05-07T04:27:47.329Z,5.21
2019-05-07T04:30:15.769Z,5.20
2019-05-07T04:32:45.834Z,5.21
2019-05-07T04:35:18.719Z,5.21
2019-05-07T04:37:47.110Z,5.23
2019-05-07T04:40:15.783Z,5.21
2019-05-07T04:42:44.252Z,5.22
2019-05-07T04:45:13.839Z,5.21
2019-05-07T04:47:47.051Z,5.22
2019-05-07T04:50:32.912Z,5.23
2019-05-07T04:52:44.885Z,5.27
2019-05-07T04:55:14.037Z,5.31
2019-05-07T04:57:43.698Z,5.33
2019-05-07T05:00:13.656Z,5.34
2019-05-07T05:02:59.714Z,5.38
2019-05-07T05:05:28.241Z,5.40
2019-05-07T05:07:56.635Z,5.40
2019-05-07T05:10:25.094Z,5.42
2019-05-07T05:12:53.865Z,5.44
2019-05-07T05:15:22.348Z,5.48
2019-05-07T05:17:53.709Z,5.51
2019-05-07T05:20:22.873Z,5.54
2019-05-07T05:22:58.559Z,5.56
2019-05-07T05:25:28.607Z,5.60
2019-05-07T05:27:56.987Z,5.67
2019-05-07T05:30:29.963Z,5.72
2019-05-07T05:33:01.269Z,5.76
2019-05-07T05:35:28.567Z,5.80
2019-05-07T05:37:57.103Z,5.84
2019-05-07T05:40:25.560Z,5.87
2019-05-07T05:42:58.683Z,5.90
2019-05-07T05:45:37.867Z,5.94
2019-05-07T05:48:08.394Z,6.00
2019-05-07T05:50:44.431Z,6.02
2019-05-07T05:53:32.713Z,6.06
2019-05-07T05:56:02.827Z,6.10
2019-05-07T05:58:32.881Z,6.16
2019-05-07T06:01:05.653Z,6.23
2019-05-07T06:03:35.763Z,6.28
2019-05-07T06:06:24.081Z,6.36
2019-05-07T06:08:57.163Z,6.44
2019-05-07T06:11:32.072Z,6.47
2019-05-07T06:14:02.257Z,6.54
2019-05-07T06:16:36.633Z,6.62
2019-05-07T06:19:17.011Z,6.69
2019-05-07T06:22:03.281Z,6.74
2019-05-07T06:24:39.302Z,6.79
2019-05-07T06:27:07.935Z,6.82
2019-05-07T06:29:36.406Z,6.88
2019-05-07T06:32:09.396Z,6.96
2019-05-07T06:34:37.830Z,7.03
2019-05-07T06:37:06.226Z,7.08
2019-05-07T06:39:36.435Z,7.17
2019-05-07T06:42:22.922Z,7.24
2019-05-07T06:45:02.909Z,7.33
2019-05-07T06:47:31.981Z,7.43
2019-05-07T06:50:02.994Z,7.50
2019-05-07T06:52:31.984Z,7.55
2019-05-07T06:55:03.202Z,7.61
2019-05-07T06:57:33.057Z,7.67
2019-05-07T07:00:22.532Z,7.76
2019-05-07T07:02:55.282Z,7.84
2019-05-07T07:05:34.142Z,7.93
2019-05-07T07:08:04.719Z,8.02
2019-05-07T07:10:34.829Z,8.09
2019-05-07T07:13:03.377Z,8.15
2019-05-07T07:15:32.148Z,8.21
2019-05-07T07:18:03.003Z,8.30
2019-05-07T07:20:32.597Z,8.40
2019-05-07T07:23:02.359Z,8.48
2019-05-07T07:25:32.614Z,8.57
2019-05-07T07:28:02.778Z,8.64
2019-05-07T07:30:33.085Z,8.69
2019-05-07T07:33:03.207Z,8.74
2019-05-07T07:35:32.233Z,8.80
2019-05-07T07:38:02.505Z,8.84
2019-05-07T07:40:32.808Z,8.87
2019-05-07T07:43:03.850Z,8.90
2019-05-07T07:45:32.382Z,8.96
2019-05-07T07:48:02.248Z,9.05
2019-05-07T07:50:33.099Z,9.14
2019-05-07T07:53:02.544Z,9.24
2019-05-07T07:55:33.075Z,9.34
2019-05-07T07:58:06.217Z,9.39
2019-05-07T08:00:38.709Z,9.45
2019-05-07T08:03:08.757Z,9.56
2019-05-07T08:05:37.205Z,9.71
2019-05-07T08:08:05.687Z,9.82
2019-05-07T08:10:34.095Z,9.94
2019-05-07T08:13:05.712Z,10.07
2019-05-07T08:15:34.134Z,10.15
2019-05-07T08:18:02.985Z,10.24
2019-05-07T08:20:32.593Z,10.27
2019-05-07T08:23:02.915Z,10.24
2019-05-07T08:25:49.412Z,10.28
2019-05-07T08:28:19.655Z,10.27
2019-05-07T08:30:50.044Z,10.37
2019-05-07T08:33:22.326Z,10.49
2019-05-07T08:35:52.265Z,10.59
2019-05-07T08:38:21.911Z,10.74
2019-05-07T08:40:52.091Z,10.87
2019-05-07T08:43:21.844Z,10.95
2019-05-07T08:45:52.567Z,11.07
2019-05-07T08:48:25.769Z,11.21
2019-05-07T08:50:54.250Z,11.31
2019-05-07T08:53:22.661Z,11.39
2019-05-07T08:55:52.625Z,11.49
2019-05-07T08:58:22.391Z,11.53
2019-05-07T09:00:52.356Z,11.57
2019-05-07T09:03:25.013Z,11.68
2019-05-07T09:05:52.653Z,11.75
2019-05-07T09:08:21.805Z,11.83
2019-05-07T09:10:52.395Z,11.97
2019-05-07T09:13:22.526Z,12.09
2019-05-07T09:15:52.690Z,12.19
2019-05-07T09:18:22.883Z,12.33
2019-05-07T09:20:52.745Z,12.21
2019-05-07T09:23:22.301Z,12.24
2019-05-07T09:25:52.278Z,12.19
2019-05-07T09:28:22.260Z,12.19
2019-05-07T09:33:37.042Z,12.28
2019-05-07T09:36:07.212Z,12.25
2019-05-07T09:38:35.624Z,12.32
2019-05-07T09:41:04.100Z,12.40
2019-05-07T09:43:32.666Z,12.39
2019-05-07T09:46:02.726Z,12.37
2019-05-07T09:48:33.601Z,12.40
2019-05-07T09:51:02.357Z,12.48
2019-05-07T09:53:32.145Z,12.64
2019-05-07T09:56:02.150Z,12.78
2019-05-07T09:58:36.556Z,12.87
2019-05-07T10:01:02.080Z,13.02
2019-05-07T10:03:32.413Z,13.24
2019-05-07T10:06:02.216Z,13.40
2019-05-07T10:08:32.417Z,13.43
2019-05-07T10:11:02.725Z,13.45
2019-05-07T10:13:33.118Z,13.47
2019-05-07T10:16:03.840Z,13.53
2019-05-07T10:18:32.169Z,13.57
2019-05-07T10:21:02.496Z,13.39
2019-05-07T10:23:31.317Z,13.31
2019-05-07T10:26:01.678Z,13.37
2019-05-07T10:28:32.112Z,13.46
2019-05-07T10:31:00.756Z,13.67
2019-05-07T10:33:29.232Z,13.87
2019-05-07T10:35:58.012Z,14.00
2019-05-07T10:38:26.421Z,14.05
2019-05-07T10:40:54.894Z,14.05
2019-05-07T10:43:23.885Z,13.98
2019-05-07T10:48:51.446Z,13.83
2019-05-07T10:51:21.830Z,13.59
2019-05-07T10:53:51.790Z,13.55
2019-05-07T10:56:22.277Z,13.56
2019-05-07T10:58:52.195Z,13.66
2019-05-07T11:01:22.517Z,13.78
2019-05-07T11:03:51.714Z,13.94
2019-05-07T11:06:22.123Z,14.01
2019-05-07T11:08:51.892Z,14.12
2019-05-07T11:11:20.453Z,14.17
2019-05-07T11:13:48.866Z,14.31
2019-05-07T11:16:18.913Z,14.44
2019-05-07T11:18:51.746Z,14.57
2019-05-07T11:21:32.969Z,14.62
2019-05-07T11:24:03.244Z,14.74
2019-05-07T11:26:32.934Z,14.95
2019-05-07T11:29:02.405Z,15.05
2019-05-07T11:31:33.114Z,15.20
2019-05-07T11:34:02.794Z,15.35
2019-05-07T11:36:31.957Z,15.45
2019-05-07T11:39:01.815Z,15.57
2019-05-07T11:41:32.135Z,15.66
2019-05-07T11:44:02.252Z,15.73
2019-05-07T11:46:32.904Z,15.74
2019-05-07T11:49:06.175Z,15.72
2019-05-07T11:51:36.299Z,15.65
2019-05-07T11:54:09.158Z,15.62
2019-05-07T11:56:38.301Z,15.63
2019-05-07T11:59:06.965Z,15.67
2019-05-07T12:01:46.581Z,15.84
2019-05-07T12:04:07.909Z,15.98
2019-05-07T12:06:36.485Z,16.08
2019-05-07T12:09:07.339Z,16.20
2019-05-07T12:11:35.760Z,16.23
2019-05-07T12:14:04.232Z,16.24
2019-05-07T12:16:32.671Z,16.23
2019-05-07T12:19:02.264Z,16.35
2019-05-07T12:21:30.769Z,16.43
2019-05-07T12:24:01.955Z,16.56
2019-05-07T12:26:30.962Z,16.74
2019-05-07T12:28:59.371Z,16.84
2019-05-07T12:31:33.615Z,16.92
2019-05-07T12:34:11.709Z,17.03
2019-05-07T12:36:39.934Z,17.22
2019-05-07T12:39:09.357Z,17.33
2019-05-07T12:41:37.827Z,17.36
2019-05-07T12:44:07.939Z,17.35
2019-05-07T12:46:36.783Z,17.37
2019-05-07T12:49:05.565Z,17.29
2019-05-07T12:51:37.796Z,17.08
2019-05-07T12:54:22.883Z,16.92
2019-05-07T12:56:53.397Z,16.87
2019-05-07T12:59:22.050Z,16.92
2019-05-07T13:01:52.183Z,17.01
2019-05-07T13:04:22.291Z,16.99
2019-05-07T13:07:04.077Z,16.98
2019-05-07T13:09:32.888Z,17.02
2019-05-07T13:12:03.045Z,17.07
2019-05-07T13:14:31.589Z,17.19
2019-05-07T13:17:00.022Z,17.38
2019-05-07T13:19:28.498Z,17.57
2019-05-07T13:21:56.913Z,17.65
2019-05-07T13:24:25.393Z,17.72
2019-05-07T13:26:53.937Z,17.86
2019-05-07T13:29:22.369Z,17.93
2019-05-07T13:31:54.306Z,17.97
2019-05-07T13:34:22.868Z,18.00
2019-05-07T13:36:54.600Z,17.97
2019-05-07T13:39:32.521Z,18.03
2019-05-07T13:42:12.679Z,18.09
2019-05-07T13:44:45.919Z,18.08
2019-05-07T13:47:28.637Z,18.06
2019-05-07T13:49:58.021Z,17.87
2019-05-07T13:52:26.508Z,17.75
2019-05-07T13:54:55.253Z,17.83
2019-05-07T13:57:23.771Z,17.88
2019-05-07T13:59:53.219Z,17.89
2019-05-07T14:02:23.677Z,17.85
2019-05-07T14:04:52.719Z,17.74
2019-05-07T14:07:21.836Z,17.70
2019-05-07T14:09:52.664Z,17.58
2019-05-07T14:12:22.997Z,17.45
2019-05-07T14:14:53.013Z,17.32
2019-05-07T14:17:22.043Z,17.26
2019-05-07T14:19:53.063Z,17.23
2019-05-07T14:22:22.603Z,17.24
2019-05-07T14:24:52.938Z,17.24
2019-05-07T14:27:23.134Z,17.23
2019-05-07T14:29:52.188Z,17.21
2019-05-07T14:32:25.420Z,17.18
2019-05-07T14:35:07.633Z,17.21
2019-05-07T14:37:37.675Z,17.26
2019-05-07T14:40:07.671Z,17.29
2019-05-07T14:42:38.419Z,17.32
2019-05-07T14:45:07.708Z,17.38
2019-05-07T14:47:36.397Z,17.41
2019-05-07T14:50:06.681Z,17.39
2019-05-07T14:52:36.301Z,17.36
2019-05-07T14:55:06.239Z,17.33
2019-05-07T14:57:35.920Z,17.36
2019-05-07T15:00:07.404Z,17.35
2019-05-07T15:02:35.979Z,17.32
2019-05-07T15:05:07.046Z,17.36
2019-05-07T15:07:37.034Z,17.38
2019-05-07T15:10:09.132Z,17.48
2019-05-07T15:12:37.713Z,17.55
2019-05-07T15:15:09.523Z,17.59
2019-05-07T15:17:41.832Z,17.69
2019-05-07T15:20:10.259Z,17.82
2019-05-07T15:22:55.461Z,17.96
2019-05-07T15:25:24.090Z,18.13
2019-05-07T15:27:52.918Z,18.25
2019-05-07T15:30:22.088Z,18.28
2019-05-07T15:32:52.127Z,18.23
2019-05-07T15:35:20.652Z,18.20
2019-05-07T15:37:49.188Z,18.31
2019-05-07T15:40:18.259Z,18.40
2019-05-07T15:42:46.672Z,18.46
2019-05-07T15:45:15.425Z,18.51
2019-05-07T15:47:45.892Z,18.53
2019-05-07T15:50:14.513Z,18.49
2019-05-07T15:52:57.652Z,18.47
2019-05-07T15:55:17.316Z,18.53
2019-05-07T15:57:45.878Z,18.54
2019-05-07T16:00:16.258Z,18.60
2019-05-07T16:02:46.342Z,18.57
2019-05-07T16:05:15.087Z,18.49
2019-05-07T16:07:44.965Z,18.38
2019-05-07T16:10:15.201Z,18.38
2019-05-07T16:12:43.919Z,18.35
2019-05-07T16:15:13.880Z,18.37
2019-05-07T16:17:44.221Z,18.43
2019-05-07T16:20:14.213Z,18.45
2019-05-07T16:22:44.387Z,18.50
2019-05-07T16:25:33.707Z,18.54
2019-05-07T16:28:04.885Z,18.54
2019-05-07T16:30:32.516Z,18.56
2019-05-07T16:33:02.088Z,18.49
2019-05-07T16:35:32.091Z,18.46
2019-05-07T16:38:00.801Z,18.44
2019-05-07T16:40:29.381Z,18.39
2019-05-07T16:42:57.801Z,18.34
2019-05-07T16:45:26.349Z,18.34
2019-05-07T16:47:54.953Z,18.36
2019-05-07T16:50:23.701Z,18.42
2019-05-07T16:52:52.540Z,18.43
2019-05-07T16:55:22.494Z,18.42
2019-05-07T16:58:04.740Z,18.42
2019-05-07T17:00:34.817Z,18.39
2019-05-07T17:03:04.869Z,18.34
2019-05-07T17:05:33.273Z,18.24
2019-05-07T17:08:03.420Z,18.13
2019-05-07T17:10:31.992Z,18.05
2019-05-07T17:13:00.345Z,18.05
2019-05-07T17:15:28.777Z,18.02
2019-05-07T17:18:02.492Z,17.98
2019-05-07T17:20:32.506Z,17.95
2019-05-07T17:23:02.766Z,17.92
2019-05-07T17:25:37.979Z,17.79
2019-05-07T17:28:08.107Z,17.68
2019-05-07T17:30:37.800Z,17.46
2019-05-07T17:33:06.849Z,17.24
2019-05-07T17:35:35.333Z,17.06
2019-05-07T17:38:07.217Z,16.90
2019-05-07T17:40:33.982Z,16.75
2019-05-07T17:43:03.203Z,16.63
2019-05-07T17:45:32.795Z,16.52
2019-05-07T17:48:03.145Z,16.43
2019-05-07T17:50:33.817Z,16.32
2019-05-07T17:53:02.223Z,16.19
2019-05-07T17:55:32.968Z,16.08
2019-05-07T17:58:01.995Z,15.99
2019-05-07T18:00:32.728Z,15.87
2019-05-07T18:03:08.095Z,15.75
2019-05-07T18:05:36.631Z,15.66
2019-05-07T18:08:05.112Z,15.60
2019-05-07T18:10:33.723Z,15.53
2019-05-07T18:13:02.132Z,15.44
2019-05-07T18:15:32.222Z,15.31
2019-05-07T18:18:05.220Z,15.19
2019-05-07T18:20:33.640Z,15.11
2019-05-07T18:23:02.631Z,15.05
2019-05-07T18:25:32.374Z,14.98
2019-05-07T18:28:01.797Z,14.88
2019-05-07T18:30:32.552Z,14.78
2019-05-07T18:33:14.610Z,14.70
2019-05-07T18:35:45.504Z,14.66
2019-05-07T18:38:13.909Z,14.63
2019-05-07T18:40:42.436Z,14.57
2019-05-07T18:43:12.242Z,14.48
2019-05-07T18:45:40.837Z,14.40
2019-05-07T18:48:09.285Z,14.31
2019-05-07T18:50:37.777Z,14.23
2019-05-07T18:53:06.247Z,14.17
2019-05-07T18:55:34.759Z,14.12
2019-05-07T18:58:03.250Z,14.09
2019-05-07T19:00:33.298Z,14.05
2019-05-07T19:03:03.451Z,13.98
2019-05-07T19:05:32.272Z,13.89
2019-05-07T19:08:07.037Z,13.79
2019-05-07T19:10:32.942Z,13.67
2019-05-07T19:13:01.341Z,13.59
2019-05-07T19:15:29.844Z,13.55
2019-05-07T19:17:58.388Z,13.48
2019-05-07T19:20:26.800Z,13.43
2019-05-07T19:22:56.745Z,13.41
2019-05-07T19:25:25.366Z,13.37
2019-05-07T19:27:53.934Z,13.27
2019-05-07T19:30:24.209Z,13.21
2019-05-07T19:32:52.957Z,13.19
2019-05-07T19:35:23.063Z,13.17
2019-05-07T19:37:52.866Z,13.12
2019-05-07T19:40:21.489Z,13.11
2019-05-07T19:42:52.128Z,13.05
2019-05-07T19:45:24.193Z,12.97
2019-05-07T19:47:52.310Z,12.92
2019-05-07T19:50:20.534Z,12.84
2019-05-07T19:52:48.955Z,12.74
2019-05-07T19:55:17.576Z,12.64
2019-05-07T19:57:47.697Z,12.51
2019-05-07T20:00:17.546Z,12.50
2019-05-07T20:02:48.021Z,12.45
2019-05-07T20:05:16.474Z,12.44
2019-05-07T20:07:44.903Z,12.46
2019-05-07T20:10:15.128Z,12.46
2019-05-07T20:12:43.554Z,12.44
2019-05-07T20:15:12.970Z,12.39
2019-05-07T20:17:41.983Z,12.33
2019-05-07T20:20:12.531Z,12.29
2019-05-07T20:22:42.664Z,12.24
2019-05-07T20:25:18.180Z,12.15
2019-05-07T20:27:41.903Z,11.97
2019-05-07T20:30:13.525Z,11.77
2019-05-07T20:32:42.807Z,11.66
2019-05-07T20:35:11.582Z,11.62
2019-05-07T20:37:41.927Z,11.59
2019-05-07T20:40:12.169Z,11.50
2019-05-07T20:42:42.681Z,11.43
2019-05-07T20:45:12.214Z,11.41
2019-05-07T20:47:42.122Z,11.33
2019-05-07T20:50:12.757Z,11.21
2019-05-07T20:52:41.813Z,11.11
2019-05-07T20:55:30.609Z,11.06
2019-05-07T20:57:54.341Z,11.00
2019-05-07T21:00:27.341Z,10.97
2019-05-07T21:03:13.339Z,10.94
2019-05-07T21:05:42.280Z,10.88
2019-05-07T21:08:11.895Z,10.79
2019-05-07T21:10:42.660Z,10.61
2019-05-07T21:13:26.760Z,10.53
2019-05-07T21:15:41.858Z,10.50
2019-05-07T21:18:12.371Z,10.52
2019-05-07T21:20:42.036Z,10.58
2019-05-07T21:23:12.230Z,10.53
2019-05-07T21:25:43.441Z,10.38
2019-05-07T21:28:12.182Z,10.18
2019-05-07T21:30:42.716Z,10.09
2019-05-07T21:33:11.965Z,10.08
2019-05-07T21:35:42.961Z,10.09
2019-05-07T21:38:12.640Z,10.14
2019-05-07T21:40:42.925Z,10.16
2019-05-07T21:43:14.221Z,10.08
2019-05-07T21:45:42.327Z,10.03
2019-05-07T21:48:13.539Z,9.97
2019-05-07T21:50:41.328Z,9.98
2019-05-07T21:53:17.297Z,9.98
2019-05-07T21:55:58.831Z,9.96
2019-05-07T21:58:36.953Z,9.96
2019-05-07T22:01:07.339Z,10.00
2019-05-07T22:03:36.001Z,9.92
2019-05-07T22:06:04.426Z,9.84
2019-05-07T22:08:32.892Z,9.78
2019-05-07T22:11:02.509Z,9.68
2019-05-07T22:13:32.922Z,9.49
2019-05-07T22:16:02.489Z,9.33
2019-05-07T22:18:31.997Z,9.19
2019-05-07T22:21:02.968Z,9.08
2019-05-07T22:23:32.524Z,9.06
2019-05-07T22:26:18.580Z,8.99
2019-05-07T22:28:32.119Z,8.87
2019-05-07T22:31:08.111Z,8.74
2019-05-07T22:33:38.271Z,8.69
2019-05-07T22:36:06.847Z,8.66
2019-05-07T22:38:35.253Z,8.69
2019-05-07T22:41:03.810Z,8.73
2019-05-07T22:43:32.289Z,8.76
2019-05-07T22:46:00.698Z,8.75
2019-05-07T22:48:29.150Z,8.73
2019-05-07T22:50:57.545Z,8.68
2019-05-07T22:53:25.956Z,8.65
2019-05-07T22:55:54.391Z,8.68
2019-05-07T22:58:24.431Z,8.73
2019-05-07T23:00:57.035Z,8.78
2019-05-07T23:03:26.175Z,8.84
2019-05-07T23:05:56.216Z,8.89
2019-05-07T23:08:24.685Z,8.91
2019-05-07T23:10:53.125Z,8.93
2019-05-07T23:13:22.640Z,8.85
2019-05-07T23:15:51.644Z,8.79
2019-05-07T23:18:22.713Z,8.76
2019-05-07T23:20:52.678Z,8.67
2019-05-07T23:23:21.730Z,8.59
2019-05-07T23:25:52.413Z,8.49
2019-05-07T23:28:22.808Z,8.40
2019-05-07T23:30:51.855Z,8.38
2019-05-07T23:33:22.492Z,8.35
2019-05-07T23:35:52.722Z,8.38
2019-05-07T23:38:22.551Z,8.44
2019-05-07T23:41:01.967Z,8.50
2019-05-07T23:43:29.965Z,8.40
2019-05-07T23:45:58.363Z,8.36
2019-05-07T23:48:27.007Z,8.35
2019-05-07T23:50:55.414Z,8.31
2019-05-07T23:53:23.815Z,8.22
2019-05-07T23:55:52.256Z,8.18
2019-05-07T23:58:22.956Z,8.19
